createdAt,value
2019-05-23T00:00:04.783Z,980.48
2019-05-23T00:01:04.892Z,980.59
2019-05-23T00:02:05.103Z,980.51
2019-05-23T00:03:04.675Z,980.54
2019-05-23T00:04:04.746Z,980.68
2019-05-23T00:05:04.939Z,980.60
2019-05-23T00:06:04.576Z,980.54
2019-05-23T00:07:04.511Z,980.51
2019-05-23T00:08:04.607Z,980.34
2019-05-23T00:09:04.693Z,980.48
2019-05-23T00:10:05.216Z,980.48
2019-05-23T00:11:04.505Z,980.57
2019-05-23T00:12:04.670Z,980.63
2019-05-23T00:13:04.965Z,980.49
2019-05-23T00:14:05.344Z,980.54
2019-05-23T00:15:05.599Z,980.52
2019-05-23T00:16:04.970Z,980.60
2019-05-23T00:17:05.219Z,980.49
2019-05-23T00:18:05.469Z,980.55
2019-05-23T00:19:04.661Z,980.49
2019-05-23T00:20:04.824Z,980.55
2019-05-23T00:21:04.801Z,980.52
2019-05-23T00:22:04.965Z,980.58
2019-05-23T00:23:05.034Z,980.58
2019-05-23T00:24:04.665Z,980.49
2019-05-23T00:25:04.661Z,980.50
2019-05-23T00:26:04.703Z,980.61
2019-05-23T00:27:05.240Z,980.52
2019-05-23T00:28:04.722Z,980.61
2019-05-23T00:29:10.894Z,980.53
2019-05-23T00:30:04.732Z,980.55
2019-05-23T00:31:04.729Z,980.44
2019-05-23T00:32:04.948Z,980.52
2019-05-23T00:33:05.051Z,980.50
2019-05-23T00:34:05.157Z,980.64
2019-05-23T00:35:05.381Z,980.58
2019-05-23T00:36:04.924Z,980.47
2019-05-23T00:37:04.899Z,980.55
2019-05-23T00:38:04.925Z,980.44
2019-05-23T00:39:04.594Z,980.55
2019-05-23T00:40:05.020Z,980.41
2019-05-23T00:41:04.732Z,980.53
2019-05-23T00:42:04.693Z,980.53
2019-05-23T00:43:05.180Z,980.58
2019-05-23T00:44:04.687Z,980.50
2019-05-23T00:45:05.026Z,980.50
2019-05-23T00:46:04.727Z,980.55
2019-05-23T00:47:04.802Z,980.47
2019-05-23T00:48:05.261Z,980.50
2019-05-23T00:49:04.573Z,980.55
2019-05-23T00:50:05.010Z,980.55
2019-05-23T00:51:05.809Z,980.50
2019-05-23T00:52:09.647Z,980.41
2019-05-23T00:53:05.086Z,980.44
2019-05-23T00:54:05.048Z,980.52
2019-05-23T00:55:05.112Z,980.44
2019-05-23T00:56:05.345Z,980.55
2019-05-23T00:57:05.439Z,980.47
2019-05-23T00:58:05.553Z,980.44
2019-05-23T00:59:04.649Z,980.69
2019-05-23T01:00:05.516Z,980.38
2019-05-23T01:01:04.574Z,980.52
2019-05-23T01:02:04.630Z,980.41
2019-05-23T01:03:04.935Z,980.52
2019-05-23T01:04:05.223Z,980.58
2019-05-23T01:05:05.268Z,980.41
2019-05-23T01:06:05.512Z,980.55
2019-05-23T01:07:04.863Z,980.64
2019-05-23T01:08:04.941Z,980.49
2019-05-23T01:09:05.540Z,980.52
2019-05-23T01:10:05.116Z,980.41
2019-05-23T01:11:05.257Z,980.52
2019-05-23T01:12:04.730Z,980.41
2019-05-23T01:13:04.665Z,980.46
2019-05-23T01:14:04.817Z,980.52
2019-05-23T01:15:05.278Z,980.52
2019-05-23T01:16:04.441Z,980.61
2019-05-23T01:17:04.700Z,980.46
2019-05-23T01:18:04.695Z,980.61
2019-05-23T01:19:05.204Z,980.43
2019-05-23T01:20:05.200Z,980.55
2019-05-23T01:21:04.739Z,980.46
2019-05-23T01:22:04.980Z,980.38
2019-05-23T01:23:05.162Z,980.41
2019-05-23T01:24:05.186Z,980.38
2019-05-23T01:25:05.311Z,980.49
2019-05-23T01:26:05.307Z,980.35
2019-05-23T01:27:04.688Z,980.40
2019-05-23T01:28:04.834Z,980.43
2019-05-23T01:29:04.877Z,980.46
2019-05-23T01:30:05.176Z,980.46
2019-05-23T01:31:05.388Z,980.35
2019-05-23T01:32:05.398Z,980.32
2019-05-23T01:33:04.478Z,980.37
2019-05-23T01:34:04.686Z,980.46
2019-05-23T01:35:04.734Z,980.34
2019-05-23T01:36:04.874Z,980.37
2019-05-23T01:37:05.347Z,980.31
2019-05-23T01:38:05.256Z,980.31
2019-05-23T01:39:05.270Z,980.31
2019-05-23T01:40:04.828Z,980.46
2019-05-23T01:41:05.398Z,980.43
2019-05-23T01:42:05.138Z,980.43
2019-05-23T01:43:04.876Z,980.34
2019-05-23T01:44:09.941Z,980.34
2019-05-23T01:45:05.341Z,980.46
2019-05-23T01:46:04.876Z,980.51
2019-05-23T01:47:04.838Z,980.60
2019-05-23T01:48:05.087Z,980.40
2019-05-23T01:49:05.064Z,980.62
2019-05-23T01:50:05.142Z,980.62
2019-05-23T01:51:05.299Z,980.43
2019-05-23T01:52:05.519Z,980.45
2019-05-23T01:53:04.725Z,980.40
2019-05-23T01:54:05.244Z,980.45
2019-05-23T01:55:05.261Z,980.51
2019-05-23T01:56:04.605Z,980.45
2019-05-23T01:57:05.093Z,980.45
2019-05-23T01:58:05.303Z,980.51
2019-05-23T01:59:05.257Z,980.51
2019-05-23T02:00:12.013Z,980.48
2019-05-23T02:01:04.737Z,980.34
2019-05-23T02:02:04.979Z,980.42
2019-05-23T02:03:04.973Z,980.48
2019-05-23T02:04:04.937Z,980.54
2019-05-23T02:05:05.232Z,980.48
2019-05-23T02:06:05.237Z,980.51
2019-05-23T02:07:04.996Z,980.42
2019-05-23T02:08:04.987Z,980.53
2019-05-23T02:09:05.247Z,980.53
2019-05-23T02:10:05.262Z,980.51
2019-05-23T02:11:04.982Z,980.48
2019-05-23T02:12:04.515Z,980.45
2019-05-23T02:13:04.674Z,980.42
2019-05-23T02:14:04.825Z,980.48
2019-05-23T02:15:04.498Z,980.39
2019-05-23T02:16:05.544Z,980.65
2019-05-23T02:17:04.502Z,980.39
2019-05-23T02:18:04.827Z,980.56
2019-05-23T02:19:04.725Z,980.51
2019-05-23T02:20:04.547Z,980.42
2019-05-23T02:21:04.987Z,980.54
2019-05-23T02:22:04.963Z,980.51
2019-05-23T02:23:05.079Z,980.45
2019-05-23T02:24:04.597Z,980.31
2019-05-23T02:25:04.920Z,980.39
2019-05-23T02:26:04.793Z,980.34
2019-05-23T02:27:05.240Z,980.48
2019-05-23T02:28:05.214Z,980.45
2019-05-23T02:29:04.692Z,980.40
2019-05-23T02:30:05.270Z,980.48
2019-05-23T02:31:04.784Z,980.48
2019-05-23T02:32:05.128Z,980.51
2019-05-23T02:33:05.207Z,980.40
2019-05-23T02:34:04.926Z,980.46
2019-05-23T02:35:05.207Z,980.43
2019-05-23T02:36:04.567Z,980.49
2019-05-23T02:37:04.669Z,980.40
2019-05-23T02:38:04.676Z,980.37
2019-05-23T02:39:04.693Z,980.40
2019-05-23T02:40:05.066Z,980.52
2019-05-23T02:41:05.072Z,980.40
2019-05-23T02:42:05.240Z,980.52
2019-05-23T02:43:05.317Z,980.38
2019-05-23T02:44:10.434Z,980.55
2019-05-23T02:45:04.837Z,980.46
2019-05-23T02:46:05.152Z,980.38
2019-05-23T02:47:05.236Z,980.49
2019-05-23T02:48:05.430Z,980.49
2019-05-23T02:49:04.619Z,980.61
2019-05-23T02:50:04.699Z,980.50
2019-05-23T02:51:04.723Z,980.50
2019-05-23T02:52:04.761Z,980.52
2019-05-23T02:53:05.156Z,980.47
2019-05-23T02:54:04.646Z,980.53
2019-05-23T02:55:04.433Z,980.36
2019-05-23T02:56:05.022Z,980.33
2019-05-23T02:57:05.429Z,980.44
2019-05-23T02:58:04.411Z,980.53
2019-05-23T02:59:04.913Z,980.53
2019-05-23T03:00:05.392Z,980.36
2019-05-23T03:01:05.423Z,980.39
2019-05-23T03:02:05.554Z,980.33
2019-05-23T03:03:04.664Z,980.36
2019-05-23T03:04:04.650Z,980.30
2019-05-23T03:05:05.037Z,980.47
2019-05-23T03:06:05.080Z,980.17
2019-05-23T03:07:05.431Z,980.39
2019-05-23T03:08:04.738Z,980.33
2019-05-23T03:09:05.222Z,980.39
2019-05-23T03:10:04.765Z,980.30
2019-05-23T03:11:04.919Z,980.33
2019-05-23T03:12:04.820Z,980.39
2019-05-23T03:13:05.043Z,980.45
2019-05-23T03:14:04.656Z,980.45
2019-05-23T03:15:05.321Z,980.31
2019-05-23T03:16:04.641Z,980.31
2019-05-23T03:17:04.693Z,980.33
2019-05-23T03:18:04.898Z,980.36
2019-05-23T03:19:04.927Z,980.31
2019-05-23T03:20:05.058Z,980.25
2019-05-23T03:21:05.225Z,980.30
2019-05-23T03:22:05.383Z,980.25
2019-05-23T03:23:05.179Z,980.28
2019-05-23T03:24:04.678Z,980.31
2019-05-23T03:25:05.023Z,980.17
2019-05-23T03:26:04.996Z,980.30
2019-05-23T03:27:05.199Z,980.31
2019-05-23T03:28:05.348Z,980.39
2019-05-23T03:29:04.937Z,980.17
2019-05-23T03:30:05.115Z,980.17
2019-05-23T03:31:31.843Z,980.25
2019-05-23T03:32:04.882Z,980.25
2019-05-23T03:33:05.560Z,980.33
2019-05-23T03:34:05.003Z,980.36
2019-05-23T03:35:04.689Z,980.33
2019-05-23T03:36:05.351Z,980.28
2019-05-23T03:37:04.467Z,980.33
2019-05-23T03:38:04.801Z,980.22
2019-05-23T03:39:05.473Z,980.25
2019-05-23T03:40:04.853Z,980.17
2019-05-23T03:41:04.955Z,980.25
2019-05-23T03:42:05.221Z,980.25
2019-05-23T03:43:04.644Z,980.31
2019-05-23T03:44:10.091Z,980.28
2019-05-23T03:45:04.547Z,980.39
2019-05-23T03:46:05.045Z,980.33
2019-05-23T03:47:05.108Z,980.28
2019-05-23T03:48:04.687Z,980.31
2019-05-23T03:49:05.278Z,980.31
2019-05-23T03:50:05.468Z,980.11
2019-05-23T03:51:04.899Z,980.09
2019-05-23T03:52:05.157Z,980.06
2019-05-23T03:53:05.415Z,980.17
2019-05-23T03:54:04.999Z,980.17
2019-05-23T03:55:04.793Z,980.11
2019-05-23T03:56:04.969Z,980.30
2019-05-23T03:57:04.943Z,980.17
2019-05-23T03:58:05.483Z,980.14
2019-05-23T03:59:05.171Z,980.28
2019-05-23T04:00:05.208Z,980.22
2019-05-23T04:01:05.223Z,980.17
2019-05-23T04:02:04.540Z,980.33
2019-05-23T04:03:05.628Z,980.06
2019-05-23T04:04:04.536Z,980.11
2019-05-23T04:05:04.955Z,980.08
2019-05-23T04:06:05.221Z,980.16
2019-05-23T04:07:05.395Z,980.16
2019-05-23T04:08:04.517Z,980.10
2019-05-23T04:09:04.954Z,980.10
2019-05-23T04:10:05.251Z,980.22
2019-05-23T04:11:05.429Z,980.00
2019-05-23T04:12:04.818Z,980.14
2019-05-23T04:13:05.027Z,980.27
2019-05-23T04:14:05.474Z,980.16
2019-05-23T04:15:04.585Z,980.12
2019-05-23T04:16:04.928Z,980.15
2019-05-23T04:17:05.144Z,980.08
2019-05-23T04:18:04.521Z,980.27
2019-05-23T04:19:05.267Z,980.08
2019-05-23T04:20:05.399Z,980.01
2019-05-23T04:21:04.525Z,980.31
2019-05-23T04:22:05.056Z,980.17
2019-05-23T04:23:04.705Z,980.03
2019-05-23T04:24:05.038Z,980.24
2019-05-23T04:25:05.667Z,980.07
2019-05-23T04:26:05.003Z,980.10
2019-05-23T04:27:04.842Z,980.09
2019-05-23T04:28:04.888Z,980.12
2019-05-23T04:29:05.345Z,980.06
2019-05-23T04:30:05.413Z,980.05
2019-05-23T04:31:04.749Z,980.24
2019-05-23T04:32:09.325Z,980.13
2019-05-23T04:33:05.043Z,980.28
2019-05-23T04:34:04.609Z,980.11
2019-05-23T04:35:04.627Z,980.36
2019-05-23T04:36:05.227Z,980.16
2019-05-23T04:37:04.633Z,980.26
2019-05-23T04:38:04.578Z,980.23
2019-05-23T04:39:04.779Z,980.28
2019-05-23T04:40:04.865Z,980.34
2019-05-23T04:41:05.100Z,980.33
2019-05-23T04:42:04.834Z,980.27
2019-05-23T04:43:05.379Z,980.26
2019-05-23T04:44:09.795Z,980.29
2019-05-23T04:45:05.155Z,980.43
2019-05-23T04:46:05.396Z,980.31
2019-05-23T04:47:05.529Z,980.42
2019-05-23T04:48:04.610Z,980.27
2019-05-23T04:49:05.129Z,980.32
2019-05-23T04:50:05.359Z,980.32
2019-05-23T04:51:05.535Z,980.32
2019-05-23T04:52:04.792Z,980.37
2019-05-23T04:53:04.886Z,980.34
2019-05-23T04:54:05.029Z,980.33
2019-05-23T04:55:05.547Z,980.36
2019-05-23T04:56:04.682Z,980.32
2019-05-23T04:57:04.775Z,980.23
2019-05-23T04:58:05.560Z,980.37
2019-05-23T04:59:04.654Z,980.31
2019-05-23T05:00:04.811Z,980.34
2019-05-23T05:01:05.179Z,980.39
2019-05-23T05:02:04.526Z,980.30
2019-05-23T05:03:05.012Z,980.35
2019-05-23T05:04:10.257Z,980.35
2019-05-23T05:05:04.676Z,980.46
2019-05-23T05:06:04.514Z,980.37
2019-05-23T05:07:04.848Z,980.37
2019-05-23T05:08:05.332Z,980.42
2019-05-23T05:09:04.765Z,980.30
2019-05-23T05:10:05.022Z,980.30
2019-05-23T05:11:04.496Z,980.44
2019-05-23T05:12:04.854Z,980.32
2019-05-23T05:13:05.297Z,980.35
2019-05-23T05:14:05.542Z,980.37
2019-05-23T05:15:05.004Z,980.31
2019-05-23T05:16:04.785Z,980.42
2019-05-23T05:17:05.337Z,980.48
2019-05-23T05:18:04.669Z,980.50
2019-05-23T05:19:04.960Z,980.41
2019-05-23T05:20:04.621Z,980.55
2019-05-23T05:21:08.396Z,980.46
2019-05-23T05:22:04.962Z,980.52
2019-05-23T05:23:05.274Z,980.46
2019-05-23T05:24:05.523Z,980.48
2019-05-23T05:25:04.736Z,980.57
2019-05-23T05:26:04.984Z,980.59
2019-05-23T05:27:05.103Z,980.53
2019-05-23T05:28:04.792Z,980.47
2019-05-23T05:29:05.303Z,980.47
2019-05-23T05:30:05.318Z,980.55
2019-05-23T05:31:04.796Z,980.46
2019-05-23T05:32:04.925Z,980.55
2019-05-23T05:33:05.037Z,980.40
2019-05-23T05:34:04.782Z,980.46
2019-05-23T05:35:05.461Z,980.48
2019-05-23T05:36:05.053Z,980.54
2019-05-23T05:37:05.042Z,980.62
2019-05-23T05:38:05.444Z,980.48
2019-05-23T05:39:04.624Z,980.50
2019-05-23T05:40:04.882Z,980.47
2019-05-23T05:41:05.030Z,980.58
2019-05-23T05:42:05.020Z,980.49
2019-05-23T05:43:05.156Z,980.55
2019-05-23T05:44:12.256Z,980.60
2019-05-23T05:45:05.057Z,980.52
2019-05-23T05:46:04.891Z,980.60
2019-05-23T05:47:05.039Z,980.51
2019-05-23T05:48:05.533Z,980.63
2019-05-23T05:49:05.029Z,980.57
2019-05-23T05:50:04.589Z,980.68
2019-05-23T05:51:05.132Z,980.71
2019-05-23T05:52:05.383Z,980.68
2019-05-23T05:53:04.880Z,980.62
2019-05-23T05:54:05.343Z,980.65
2019-05-23T05:55:05.429Z,980.68
2019-05-23T05:56:05.463Z,980.62
2019-05-23T05:57:04.868Z,980.82
2019-05-23T05:58:05.364Z,980.77
2019-05-23T05:59:05.155Z,980.73
2019-05-23T06:00:05.310Z,980.70
2019-05-23T06:01:05.097Z,980.65
2019-05-23T06:02:05.330Z,980.62
2019-05-23T06:03:06.180Z,980.59
2019-05-23T06:04:04.943Z,980.67
2019-05-23T06:05:04.724Z,980.70
2019-05-23T06:06:05.159Z,980.76
2019-05-23T06:07:05.118Z,980.81
2019-05-23T06:08:04.577Z,980.81
2019-05-23T06:09:04.603Z,980.72
2019-05-23T06:10:05.372Z,980.77
2019-05-23T06:11:04.797Z,980.80
2019-05-23T06:12:05.259Z,980.83
2019-05-23T06:13:04.927Z,980.74
2019-05-23T06:14:04.875Z,980.77
2019-05-23T06:15:05.435Z,980.68
2019-05-23T06:16:09.702Z,980.70
2019-05-23T06:17:05.268Z,980.73
2019-05-23T06:18:04.608Z,980.75
2019-05-23T06:19:05.204Z,980.69
2019-05-23T06:20:05.285Z,980.69
2019-05-23T06:21:05.596Z,980.72
2019-05-23T06:22:05.498Z,980.80
2019-05-23T06:23:05.037Z,980.69
2019-05-23T06:24:05.338Z,980.80
2019-05-23T06:25:05.000Z,980.77
2019-05-23T06:26:04.874Z,980.72
2019-05-23T06:27:05.002Z,980.80
2019-05-23T06:28:04.820Z,980.66
2019-05-23T06:29:04.988Z,980.80
2019-05-23T06:30:04.604Z,980.77
2019-05-23T06:31:05.145Z,980.76
2019-05-23T06:32:05.290Z,980.71
2019-05-23T06:33:24.187Z,980.71
2019-05-23T06:34:04.906Z,980.71
2019-05-23T06:35:05.073Z,980.82
2019-05-23T06:36:04.746Z,980.82
2019-05-23T06:37:04.706Z,980.79
2019-05-23T06:38:04.766Z,980.76
2019-05-23T06:39:04.851Z,980.74
2019-05-23T06:40:05.607Z,980.71
2019-05-23T06:41:05.339Z,980.65
2019-05-23T06:42:05.063Z,980.68
2019-05-23T06:43:05.454Z,980.62
2019-05-23T06:44:05.492Z,980.82
2019-05-23T06:45:04.673Z,980.76
2019-05-23T06:46:04.844Z,980.71
2019-05-23T06:47:05.184Z,980.68
2019-05-23T06:48:05.326Z,980.71
2019-05-23T06:49:04.610Z,980.71
2019-05-23T06:50:10.281Z,980.67
2019-05-23T06:51:05.372Z,980.70
2019-05-23T06:52:05.228Z,980.62
2019-05-23T06:53:05.338Z,980.73
2019-05-23T06:54:05.208Z,980.70
2019-05-23T06:55:04.736Z,980.76
2019-05-23T06:56:05.367Z,980.70
2019-05-23T06:57:05.037Z,980.76
2019-05-23T06:58:05.427Z,980.82
2019-05-23T06:59:04.979Z,980.76
2019-05-23T07:00:05.613Z,980.85
2019-05-23T07:01:04.675Z,980.73
2019-05-23T07:02:04.949Z,980.67
2019-05-23T07:03:05.535Z,980.79
2019-05-23T07:04:04.870Z,980.79
2019-05-23T07:05:05.077Z,980.73
2019-05-23T07:06:04.495Z,980.78
2019-05-23T07:07:05.142Z,980.87
2019-05-23T07:08:04.581Z,980.84
2019-05-23T07:09:05.157Z,980.90
2019-05-23T07:10:04.678Z,980.90
2019-05-23T07:11:05.059Z,980.87
2019-05-23T07:12:05.292Z,980.81
2019-05-23T07:13:04.886Z,981.02
2019-05-23T07:14:05.569Z,980.87
2019-05-23T07:15:04.615Z,980.75
2019-05-23T07:16:05.364Z,980.90
2019-05-23T07:17:04.865Z,980.87
2019-05-23T07:18:05.176Z,980.81
2019-05-23T07:19:05.392Z,980.72
2019-05-23T07:20:04.563Z,981.01
2019-05-23T07:21:05.005Z,980.89
2019-05-23T07:22:05.034Z,980.78
2019-05-23T07:23:05.345Z,980.92
2019-05-23T07:24:05.321Z,980.83
2019-05-23T07:25:05.459Z,980.92
2019-05-23T07:26:04.728Z,980.83
2019-05-23T07:27:04.960Z,981.00
2019-05-23T07:28:05.282Z,980.82
2019-05-23T07:29:04.670Z,980.82
2019-05-23T07:30:05.410Z,980.94
2019-05-23T07:31:05.164Z,980.91
2019-05-23T07:32:04.935Z,980.85
2019-05-23T07:33:05.524Z,980.82
2019-05-23T07:34:05.292Z,980.70
2019-05-23T07:35:05.382Z,980.90
2019-05-23T07:36:05.677Z,980.90
2019-05-23T07:37:04.617Z,980.84
2019-05-23T07:38:04.690Z,980.93
2019-05-23T07:39:05.270Z,980.84
2019-05-23T07:40:04.672Z,980.90
2019-05-23T07:41:04.716Z,980.84
2019-05-23T07:42:04.955Z,980.81
2019-05-23T07:43:05.107Z,980.90
2019-05-23T07:44:10.145Z,980.72
2019-05-23T07:45:04.541Z,980.87
2019-05-23T07:46:05.144Z,980.90
2019-05-23T07:47:04.741Z,980.89
2019-05-23T07:48:05.255Z,980.89
2019-05-23T07:49:04.801Z,980.83
2019-05-23T07:50:04.879Z,980.69
2019-05-23T07:51:05.222Z,980.86
2019-05-23T07:52:05.349Z,980.89
2019-05-23T07:53:05.182Z,980.89
2019-05-23T07:54:05.474Z,980.86
2019-05-23T07:55:04.836Z,980.80
2019-05-23T07:56:05.252Z,980.83
2019-05-23T07:57:04.548Z,980.71
2019-05-23T07:58:05.134Z,980.88
2019-05-23T07:59:04.562Z,980.91
2019-05-23T08:00:05.291Z,980.85
2019-05-23T08:01:04.948Z,980.94
2019-05-23T08:02:05.121Z,980.82
2019-05-23T08:03:05.319Z,980.94
2019-05-23T08:04:22.417Z,980.71
2019-05-23T08:05:05.462Z,980.77
2019-05-23T08:06:05.437Z,980.79
2019-05-23T08:07:05.139Z,980.88
2019-05-23T08:08:05.136Z,980.73
2019-05-23T08:09:04.921Z,980.85
2019-05-23T08:10:05.166Z,980.82
2019-05-23T08:11:05.588Z,980.79
2019-05-23T08:12:04.633Z,980.73
2019-05-23T08:13:04.715Z,980.85
2019-05-23T08:14:05.227Z,980.76
2019-05-23T08:15:05.234Z,980.88
2019-05-23T08:16:05.069Z,980.73
2019-05-23T08:17:05.143Z,980.79
2019-05-23T08:18:05.298Z,980.59
2019-05-23T08:19:04.502Z,980.67
2019-05-23T08:20:05.169Z,980.79
2019-05-23T08:21:05.074Z,980.79
2019-05-23T08:22:05.350Z,980.71
2019-05-23T08:23:04.446Z,980.79
2019-05-23T08:24:05.261Z,980.73
2019-05-23T08:25:04.722Z,980.65
2019-05-23T08:26:04.899Z,980.67
2019-05-23T08:27:04.540Z,980.67
2019-05-23T08:28:04.599Z,980.62
2019-05-23T08:29:26.749Z,980.73
2019-05-23T08:30:05.518Z,980.67
2019-05-23T08:31:04.624Z,980.67
2019-05-23T08:32:04.597Z,980.76
2019-05-23T08:33:04.744Z,980.85
2019-05-23T08:34:05.273Z,980.70
2019-05-23T08:35:05.417Z,980.79
2019-05-23T08:36:05.154Z,980.67
2019-05-23T08:37:05.198Z,980.67
2019-05-23T08:38:05.156Z,980.82
2019-05-23T08:39:04.812Z,980.71
2019-05-23T08:40:04.924Z,980.68
2019-05-23T08:41:05.045Z,980.71
2019-05-23T08:42:05.110Z,980.76
2019-05-23T08:43:05.085Z,980.71
2019-05-23T08:44:11.934Z,980.82
2019-05-23T08:45:05.469Z,980.65
2019-05-23T08:46:04.557Z,980.85
2019-05-23T08:47:04.841Z,980.71
2019-05-23T08:48:05.145Z,980.79
2019-05-23T08:49:05.169Z,980.82
2019-05-23T08:50:04.824Z,980.68
2019-05-23T08:51:04.925Z,980.76
2019-05-23T08:52:05.502Z,980.71
2019-05-23T08:53:05.371Z,980.76
2019-05-23T08:54:05.548Z,980.67
2019-05-23T08:55:04.515Z,980.70
2019-05-23T08:56:19.399Z,980.71
2019-05-23T08:57:05.466Z,980.71
2019-05-23T08:58:04.524Z,980.56
2019-05-23T08:59:05.348Z,980.71
2019-05-23T09:00:05.336Z,980.71
2019-05-23T09:01:05.382Z,980.73
2019-05-23T09:02:04.575Z,980.71
2019-05-23T09:03:04.744Z,980.70
2019-05-23T09:04:10.452Z,980.59
2019-05-23T09:05:06.999Z,980.62
2019-05-23T09:06:04.520Z,980.59
2019-05-23T09:07:05.201Z,980.62
2019-05-23T09:08:04.601Z,980.62
2019-05-23T09:09:29.420Z,980.59
2019-05-23T09:10:04.495Z,980.71
2019-05-23T09:11:04.870Z,980.59
2019-05-23T09:12:05.115Z,980.56
2019-05-23T09:13:04.746Z,980.59
2019-05-23T09:14:04.907Z,980.59
2019-05-23T09:15:07.217Z,980.62
2019-05-23T09:16:05.333Z,980.56
2019-05-23T09:17:05.493Z,980.67
2019-05-23T09:18:05.208Z,980.70
2019-05-23T09:19:04.474Z,980.67
2019-05-23T09:20:04.821Z,980.55
2019-05-23T09:21:04.841Z,980.67
2019-05-23T09:22:04.775Z,980.61
2019-05-23T09:23:05.172Z,980.61
2019-05-23T09:24:05.437Z,980.58
2019-05-23T09:25:05.556Z,980.49
2019-05-23T09:26:04.712Z,980.64
2019-05-23T09:27:05.199Z,980.63
2019-05-23T09:28:05.390Z,980.60
2019-05-23T09:29:04.740Z,980.60
2019-05-23T09:30:05.036Z,980.63
2019-05-23T09:31:05.583Z,980.66
2019-05-23T09:32:04.835Z,980.60
2019-05-23T09:33:04.979Z,980.63
2019-05-23T09:34:05.547Z,980.75
2019-05-23T09:35:21.620Z,980.72
2019-05-23T09:36:04.910Z,980.54
2019-05-23T09:37:05.021Z,980.66
2019-05-23T09:38:05.424Z,980.66
2019-05-23T09:39:04.660Z,980.55
2019-05-23T09:40:04.859Z,980.52
2019-05-23T09:41:05.311Z,980.47
2019-05-23T09:42:05.406Z,980.53
2019-05-23T09:43:04.763Z,980.47
2019-05-23T09:44:10.197Z,980.65
2019-05-23T09:45:04.554Z,980.65
2019-05-23T09:46:04.977Z,980.50
2019-05-23T09:47:05.418Z,980.50
2019-05-23T09:48:04.850Z,980.56
2019-05-23T09:49:05.289Z,980.44
2019-05-23T09:50:05.290Z,980.53
2019-05-23T09:51:04.562Z,980.50
2019-05-23T09:52:05.505Z,980.58
2019-05-23T09:53:04.736Z,980.49
2019-05-23T09:54:04.792Z,980.52
2019-05-23T09:55:05.410Z,980.40
2019-05-23T09:56:04.800Z,980.52
2019-05-23T09:57:05.408Z,980.46
2019-05-23T09:58:05.391Z,980.54
2019-05-23T09:59:04.941Z,980.54
2019-05-23T10:00:04.856Z,980.54
2019-05-23T10:01:04.888Z,980.48
2019-05-23T10:02:05.148Z,980.46
2019-05-23T10:03:05.274Z,980.48
2019-05-23T10:04:04.912Z,980.66
2019-05-23T10:05:05.575Z,980.49
2019-05-23T10:06:04.906Z,980.43
2019-05-23T10:07:04.861Z,980.54
2019-05-23T10:08:04.977Z,980.46
2019-05-23T10:09:05.302Z,980.37
2019-05-23T10:10:05.352Z,980.43
2019-05-23T10:11:04.856Z,980.43
2019-05-23T10:12:05.067Z,980.48
2019-05-23T10:13:05.044Z,980.45
2019-05-23T10:14:04.577Z,980.45
2019-05-23T10:15:05.187Z,980.51
2019-05-23T10:16:04.591Z,980.62
2019-05-23T10:17:05.276Z,980.42
2019-05-23T10:18:05.220Z,980.42
2019-05-23T10:19:04.759Z,980.42
2019-05-23T10:20:05.317Z,980.39
2019-05-23T10:21:04.747Z,980.39
2019-05-23T10:22:04.913Z,980.42
2019-05-23T10:23:05.180Z,980.33
2019-05-23T10:24:04.661Z,980.33
2019-05-23T10:25:05.418Z,980.30
2019-05-23T10:26:04.648Z,980.45
2019-05-23T10:27:05.271Z,980.30
2019-05-23T10:28:04.765Z,980.27
2019-05-23T10:29:04.976Z,980.45
2019-05-23T10:30:05.248Z,980.42
2019-05-23T10:31:05.452Z,980.56
2019-05-23T10:32:05.024Z,980.41
2019-05-23T10:33:13.291Z,980.33
2019-05-23T10:34:05.129Z,980.32
2019-05-23T10:35:05.276Z,980.29
2019-05-23T10:36:04.595Z,980.32
2019-05-23T10:37:05.318Z,980.32
2019-05-23T10:38:05.502Z,980.41
2019-05-23T10:39:05.135Z,980.38
2019-05-23T10:40:05.253Z,980.35
2019-05-23T10:41:05.338Z,980.31
2019-05-23T10:42:04.543Z,980.31
2019-05-23T10:43:05.304Z,980.29
2019-05-23T10:44:05.482Z,980.18
2019-05-23T10:45:04.575Z,980.15
2019-05-23T10:46:04.925Z,980.29
2019-05-23T10:47:04.920Z,980.32
2019-05-23T10:48:05.027Z,980.44
2019-05-23T10:49:09.559Z,980.29
2019-05-23T10:50:09.839Z,980.35
2019-05-23T10:51:04.862Z,980.35
2019-05-23T10:52:04.543Z,980.15
2019-05-23T10:53:04.937Z,980.29
2019-05-23T10:54:04.878Z,980.21
2019-05-23T10:55:05.189Z,980.16
2019-05-23T10:56:05.505Z,980.27
2019-05-23T10:57:05.064Z,980.35
2019-05-23T10:58:04.929Z,980.24
2019-05-23T10:59:05.701Z,980.26
2019-05-23T11:00:04.615Z,980.07
2019-05-23T11:01:04.942Z,980.21
2019-05-23T11:02:04.591Z,980.38
2019-05-23T11:03:05.039Z,980.23
2019-05-23T11:04:05.100Z,980.16
2019-05-23T11:05:14.334Z,980.26
2019-05-23T11:06:17.053Z,980.04
2019-05-23T11:07:04.616Z,980.07
2019-05-23T11:08:04.930Z,980.32
2019-05-23T11:09:05.324Z,980.21
2019-05-23T11:10:05.409Z,980.23
2019-05-23T11:11:05.492Z,980.21
2019-05-23T11:12:05.248Z,980.32
2019-05-23T11:13:05.134Z,980.13
2019-05-23T11:14:09.011Z,980.29
2019-05-23T11:15:05.032Z,980.26
2019-05-23T11:16:05.562Z,980.18
2019-05-23T11:17:05.014Z,980.13
2019-05-23T11:18:05.051Z,980.23
2019-05-23T11:19:04.498Z,980.29
2019-05-23T11:20:04.614Z,980.01
2019-05-23T11:21:05.490Z,980.35
2019-05-23T11:22:04.792Z,980.15
2019-05-23T11:23:05.329Z,980.10
2019-05-23T11:24:04.623Z,980.18
2019-05-23T11:25:05.118Z,980.07
2019-05-23T11:26:05.391Z,980.10
2019-05-23T11:27:05.114Z,980.23
2019-05-23T11:28:05.437Z,980.18
2019-05-23T11:29:04.789Z,980.10
2019-05-23T11:30:04.758Z,980.29
2019-05-23T11:31:04.901Z,980.12
2019-05-23T11:32:05.472Z,980.09
2019-05-23T11:33:04.926Z,980.09
2019-05-23T11:34:05.155Z,980.01
2019-05-23T11:35:05.612Z,980.15
2019-05-23T11:36:05.029Z,979.98
2019-05-23T11:37:04.635Z,980.15
2019-05-23T11:38:05.147Z,980.01
2019-05-23T11:39:05.213Z,980.18
2019-05-23T11:40:05.270Z,979.98
2019-05-23T11:41:04.777Z,979.95
2019-05-23T11:42:04.968Z,980.01
2019-05-23T11:43:05.067Z,980.06
2019-05-23T11:44:09.774Z,980.04
2019-05-23T11:45:05.363Z,980.06
2019-05-23T11:46:04.809Z,980.12
2019-05-23T11:47:04.840Z,980.00
2019-05-23T11:48:04.532Z,980.09
2019-05-23T11:49:05.096Z,979.95
2019-05-23T11:50:04.961Z,979.97
2019-05-23T11:51:05.434Z,979.86
2019-05-23T11:52:05.182Z,979.86
2019-05-23T11:53:04.949Z,980.00
2019-05-23T11:54:09.920Z,980.00
2019-05-23T11:55:04.956Z,979.91
2019-05-23T11:56:05.193Z,979.91
2019-05-23T11:57:04.770Z,979.97
2019-05-23T11:58:05.314Z,979.83
2019-05-23T11:59:04.858Z,979.84
2019-05-23T12:00:04.902Z,979.89
2019-05-23T12:01:05.602Z,980.01
2019-05-23T12:02:04.906Z,979.92
2019-05-23T12:03:05.068Z,979.95
2019-05-23T12:04:10.063Z,979.86
2019-05-23T12:05:04.973Z,979.75
2019-05-23T12:06:06.352Z,979.75
2019-05-23T12:07:05.047Z,979.89
2019-05-23T12:08:05.167Z,979.78
2019-05-23T12:09:05.296Z,979.86
2019-05-23T12:10:05.585Z,979.75
2019-05-23T12:11:04.670Z,979.78
2019-05-23T12:12:05.069Z,979.78
2019-05-23T12:13:04.511Z,979.72
2019-05-23T12:14:04.746Z,979.78
2019-05-23T12:15:05.091Z,979.66
2019-05-23T12:16:04.626Z,979.75
2019-05-23T12:17:04.741Z,979.72
2019-05-23T12:18:05.090Z,979.81
2019-05-23T12:19:04.679Z,979.77
2019-05-23T12:20:05.192Z,979.74
2019-05-23T12:21:05.024Z,979.83
2019-05-23T12:22:04.564Z,979.74
2019-05-23T12:23:11.358Z,979.68
2019-05-23T12:24:05.078Z,979.77
2019-05-23T12:25:22.873Z,979.71
2019-05-23T12:26:05.382Z,979.74
2019-05-23T12:27:05.579Z,979.69
2019-05-23T12:28:05.500Z,979.63